Time;durP1;ratioP1;P1;durP2;ratioP2;P2;SDS_P1;SDS_P2;PMS_P1;PMS_P2;Temp;Humidity;BMP_temperature;BMP_pressure;BME280_temperature;BME280_humidity;BME280_pressure;Samples;Min_cycle;Max_cycle;Signal;HPM_P1;HPM_P2
2022/02/02 00:01:30;;;;;;;3.45;0.20;;;24.90;38.30;;;;;;5073437;28;20041;-52
2022/02/02 00:03:58;;;;;;;4.72;0.57;;;24.90;38.20;;;;;;5078842;28;20135;-57
2022/02/02 00:06:32;;;;;;;0.38;0.20;;;24.90;38.10;;;;;;5076880;28;20722;-53
2022/02/02 00:09:02;;;;;;;2.28;0.20;;;25.00;38.00;;;;;;5077310;28;20093;-55
2022/02/02 00:14:30;;;;;;;0.40;0.40;;;25.00;37.90;;;;;;5075029;28;20140;-58
2022/02/02 00:17:03;;;;;;;0.93;0.40;;;25.10;37.90;;;;;;5078875;28;20056;-60
2022/02/02 00:19:41;;;;;;;1.83;0.20;;;25.10;37.80;;;;;;5078975;28;20046;-59
2022/02/02 00:22:12;;;;;;;2.05;0.10;;;25.10;37.80;;;;;;5081742;28;20096;-59
2022/02/02 00:24:55;;;;;;;1.23;0.10;;;25.20;37.70;;;;;;5072462;28;20040;-59
2022/02/02 00:27:24;;;;;;;1.42;0.10;;;25.20;37.70;;;;;;5071001;28;20075;-62
2022/02/02 00:29:55;;;;;;;2.08;0.30;;;25.20;37.60;;;;;;5076460;28;20037;-61
2022/02/02 00:32:38;;;;;;;1.00;0.10;;;25.20;38.10;;;;;;5077660;28;20048;-66
2022/02/02 00:35:06;;;;;;;0.82;0.10;;;25.20;37.40;;;;;;5079584;28;20036;-61
2022/02/02 00:37:33;;;;;;;2.20;0.20;;;25.30;37.50;;;;;;5076788;28;20390;-63
2022/02/02 00:40:00;;;;;;;0.68;0.10;;;25.30;37.40;;;;;;5077852;28;20050;-64
2022/02/02 00:42:29;;;;;;;3.05;0.63;;;25.30;37.40;;;;;;5075486;28;20055;-59
2022/02/02 00:44:57;;;;;;;1.20;0.25;;;25.30;37.40;;;;;;5077962;28;20755;-58
2022/02/02 00:47:26;;;;;;;0.80;0.10;;;25.30;37.40;;;;;;5077951;28;20397;-59
2022/02/02 00:49:55;;;;;;;2.05;0.35;;;25.40;37.30;;;;;;5079650;28;20533;-61
2022/02/02 00:52:23;;;;;;;0.45;0.20;;;25.40;37.20;;;;;;5077613;28;20040;-60
2022/02/02 00:54:50;;;;;;;1.70;0.20;;;25.40;37.20;;;;;;5073122;28;20048;-63
2022/02/02 00:57:17;;;;;;;2.38;0.30;;;25.40;37.10;;;;;;5076309;28;20515;-60
2022/02/02 00:59:44;;;;;;;1.80;0.10;;;25.40;37.10;;;;;;5073764;28;20058;-65
2022/02/02 01:02:12;;;;;;;0.43;0.20;;;25.40;37.00;;;;;;5078515;28;20068;-63
2022/02/02 01:04:41;;;;;;;1.90;0.40;;;25.50;37.00;;;;;;5086864;28;20098;-66
2022/02/02 01:07:15;;;;;;;1.40;0.10;;;25.50;37.00;;;;;;5079528;28;20040;-64
2022/02/02 01:09:47;;;;;;;1.70;0.10;;;25.50;36.90;;;;;;5078036;28;20127;-63
2022/02/02 01:12:44;;;;;;;3.70;0.22;;;25.50;37.00;;;;;;5074028;28;20501;-66
2022/02/02 01:20:53;;;;;;;1.35;0.43;;;25.50;36.80;;;;;;5073534;28;20044;-66
2022/02/02 01:28:51;;;;;;;4.55;0.10;;;25.20;36.90;;;;;;5075637;28;20855;-65
2022/02/02 01:31:18;;;;;;;1.23;0.10;;;25.10;37.10;;;;;;5076894;28;20048;-65
2022/02/02 01:33:47;;;;;;;1.75;0.10;;;25.00;37.20;;;;;;5072755;28;20118;-65
2022/02/02 01:36:16;;;;;;;2.53;0.10;;;25.00;37.30;;;;;;5082590;28;20059;-63
2022/02/02 01:38:45;;;;;;;1.55;0.28;;;24.90;37.40;;;;;;5076031;28;20047;-63
2022/02/02 01:41:19;;;;;;;3.35;0.32;;;24.80;37.50;;;;;;5090252;28;20404;-64
2022/02/02 01:43:54;;;;;;;1.27;0.25;;;24.80;37.60;;;;;;5074838;28;20503;-64
2022/02/02 01:46:22;;;;;;;1.30;0.22;;;24.70;37.80;;;;;;5083556;28;20044;-64
2022/02/02 01:48:58;;;;;;;1.67;0.10;;;24.60;37.80;;;;;;5076466;28;20093;-67
2022/02/02 01:51:58;;;;;;;;;;;24.60;38.00;;;;;;5079612;28;20045;-66
2022/02/02 01:54:50;;;;;;;3.85;0.10;;;24.50;38.00;;;;;;5074063;28;19930;-65
2022/02/02 01:57:35;;;;;;;0.95;0.10;;;24.40;38.20;;;;;;5074964;28;20044;-65
2022/02/02 02:00:02;;;;;;;0.30;0.10;;;24.30;38.30;;;;;;5072830;28;20754;-63
2022/02/02 02:02:30;;;;;;;2.05;0.10;;;24.30;38.40;;;;;;5076300;28;20036;-63
2022/02/02 02:04:57;;;;;;;1.40;0.20;;;24.30;38.50;;;;;;5079518;28;20044;-65
2022/02/02 02:07:25;;;;;;;1.38;0.30;;;24.20;38.50;;;;;;5075920;28;20575;-65
2022/02/02 02:09:54;;;;;;;2.75;0.20;;;24.20;38.60;;;;;;5074876;28;20047;-64
2022/02/02 02:12:21;;;;;;;0.73;0.10;;;24.10;38.70;;;;;;5082013;28;20596;-64
2022/02/02 02:14:52;;;;;;;2.28;0.35;;;24.10;38.70;;;;;;5075944;28;20040;-63
2022/02/02 02:17:22;;;;;;;3.85;0.10;;;24.10;38.80;;;;;;5075309;28;20074;-64
2022/02/02 02:19:50;;;;;;;2.53;0.10;;;24.00;38.90;;;;;;5079240;28;20071;-64
2022/02/02 02:22:22;;;;;;;1.50;0.22;;;24.00;38.90;;;;;;5076795;28;20044;-64
2022/02/02 02:24:49;;;;;;;0.45;0.10;;;24.00;39.10;;;;;;5078560;28;20043;-64
2022/02/02 02:27:18;;;;;;;0.68;0.22;;;23.90;39.10;;;;;;5095746;27;20963;-65
2022/02/02 02:30:04;;;;;;;1.10;0.20;;;23.90;39.10;;;;;;5078662;28;20051;-64
2022/02/02 02:35:36;;;;;;;0.52;0.10;;;23.90;39.30;;;;;;5054593;28;20048;-63
2022/02/02 02:38:41;;;;;;;3.20;0.10;;;23.80;39.40;;;;;;5053861;28;20504;-64
2022/02/02 02:57:45;;;;;;;1.95;0.10;;;23.70;39.80;;;;;;5053550;28;20041;-63
2022/02/02 03:00:32;;;;;;;1.55;0.50;;;23.70;39.90;;;;;;5052432;28;20051;-63
2022/02/02 03:30:33;;;;;;;0.98;0.30;;;23.60;40.60;;;;;;5015191;28;20045;-63
2022/02/02 03:49:52;;;;;;;1.98;0.10;;;23.50;40.80;;;;;;5071825;28;20051;-63
2022/02/02 03:55:21;;;;;;;0.10;0.10;;;23.60;40.90;;;;;;5038172;28;20475;-64
2022/02/02 03:58:08;;;;;;;0.85;0.13;;;23.50;40.90;;;;;;5037619;28;20517;-64
2022/02/02 04:00:43;;;;;;;2.38;0.17;;;23.60;40.90;;;;;;5033870;28;20168;-64
2022/02/02 04:03:33;;;;;;;0.55;0.10;;;23.60;41.00;;;;;;5037313;28;20049;-63
2022/02/02 04:06:06;;;;;;;0.68;0.10;;;23.60;41.00;;;;;;5036930;28;20049;-64
2022/02/02 04:08:36;;;;;;;1.27;0.40;;;23.60;41.00;;;;;;5036062;28;20195;-64
2022/02/02 04:11:12;;;;;;;0.50;0.10;;;23.60;41.00;;;;;;5036524;28;20100;-63
2022/02/02 04:38:47;;;;;;;0.57;0.10;;;23.60;41.40;;;;;;5077191;28;20463;-63
2022/02/02 04:52:46;;;;;;;0.38;0.25;;;23.60;41.50;;;;;;4938354;28;20063;-63
2022/02/02 04:55:22;;;;;;;0.80;0.10;;;23.60;41.50;;;;;;4938572;28;20699;-63
2022/02/02 04:58:05;;;;;;;0.38;0.10;;;23.60;41.50;;;;;;4940692;28;20047;-63
2022/02/02 05:06:09;;;;;;;0.35;0.10;;;23.60;41.50;;;;;;4939696;28;20040;-64
2022/02/02 05:08:43;;;;;;;3.83;0.30;;;23.70;41.60;;;;;;4922741;28;20527;-63
2022/02/02 05:11:36;;;;;;;0.90;0.10;;;23.70;41.50;;;;;;4919979;28;20090;-63
2022/02/02 05:15:03;;;;;;;1.17;0.68;;;23.70;41.70;;;;;;4941686;28;20043;-64
2022/02/02 05:17:18;;;;;;;0.38;0.00;;;23.70;41.70;;;;;;4940319;28;20130;-64
2022/02/02 05:23:15;;;;;;;0.22;0.10;;;23.70;41.70;;;;;;4984419;28;20052;-63
2022/02/02 05:45:27;;;;;;;1.30;0.10;;;23.60;41.50;;;;;;5032235;28;20726;-63
2022/02/02 05:50:56;;;;;;;0.85;0.10;;;23.60;41.60;;;;;;5032687;28;20599;-63
2022/02/02 05:53:24;;;;;;;0.88;0.30;;;23.60;41.60;;;;;;5032642;28;20049;-63
2022/02/02 05:55:53;;;;;;;0.20;0.00;;;23.60;41.60;;;;;;5036134;28;20909;-63
2022/02/02 05:58:26;;;;;;;0.38;0.10;;;23.60;41.50;;;;;;5038098;28;20049;-63
2022/02/02 06:00:56;;;;;;;1.40;0.10;;;23.60;41.50;;;;;;5030853;28;20040;-63
2022/02/02 06:03:27;;;;;;;0.20;0.20;;;23.60;41.50;;;;;;5035998;28;20051;-63
2022/02/02 06:05:55;;;;;;;0.30;0.30;;;23.60;41.50;;;;;;5032171;28;20041;-63
2022/02/02 06:08:23;;;;;;;0.95;0.10;;;23.60;41.50;;;;;;5057786;28;20054;-62
2022/02/02 06:10:52;;;;;;;1.65;0.20;;;23.60;41.60;;;;;;5078211;28;20070;-62
2022/02/02 06:13:21;;;;;;;0.57;0.10;;;23.70;41.60;;;;;;5073119;28;20125;-63
2022/02/02 06:15:50;;;;;;;1.88;0.50;;;23.60;41.50;;;;;;5074971;28;20054;-63
2022/02/02 06:18:25;;;;;;;1.80;0.20;;;23.60;41.50;;;;;;5073410;28;20567;-62
2022/02/02 06:20:55;;;;;;;0.73;0.10;;;23.70;41.70;;;;;;5076116;28;20051;-62
2022/02/02 06:23:30;;;;;;;0.63;0.10;;;23.70;41.70;;;;;;5072907;28;20064;-63
2022/02/02 06:26:03;;;;;;;0.80;0.10;;;23.70;41.70;;;;;;5076071;28;20138;-63
2022/02/02 06:28:33;;;;;;;1.48;0.20;;;23.60;41.60;;;;;;5079557;28;20049;-62
2022/02/02 06:31:03;;;;;;;4.15;0.10;;;23.70;41.80;;;;;;5078374;28;20036;-65
2022/02/02 06:33:35;;;;;;;2.38;0.20;;;23.60;41.80;;;;;;5071408;28;20051;-64
2022/02/02 06:36:04;;;;;;;1.20;0.13;;;23.70;42.00;;;;;;5083251;28;20036;-62
2022/02/02 06:38:32;;;;;;;0.65;0.15;;;23.60;41.90;;;;;;5073220;28;20592;-64
2022/02/02 06:41:02;;;;;;;1.85;0.10;;;23.60;41.90;;;;;;5075158;28;20063;-64
2022/02/02 06:43:29;;;;;;;0.70;0.10;;;23.60;41.90;;;;;;5070946;28;20767;-64
2022/02/02 06:45:59;;;;;;;1.75;0.20;;;23.60;41.80;;;;;;5076085;28;20040;-65
2022/02/02 06:48:28;;;;;;;1.48;0.40;;;23.60;41.80;;;;;;5075808;28;20044;-64
2022/02/02 06:51:01;;;;;;;1.58;0.40;;;23.60;41.90;;;;;;5068582;28;20700;-64
2022/02/02 06:53:37;;;;;;;1.23;0.55;;;23.70;42.00;;;;;;5080300;28;20131;-64
2022/02/02 06:56:18;;;;;;;0.77;0.28;;;23.60;41.80;;;;;;5081196;28;20123;-64
2022/02/02 06:59:08;;;;;;;0.40;0.20;;;23.60;41.80;;;;;;5073352;28;20047;-65
2022/02/02 07:01:49;;;;;;;2.50;0.52;;;23.60;41.90;;;;;;5078856;28;20040;-64
2022/02/02 07:04:46;;;;;;;0.80;0.20;;;23.60;41.90;;;;;;5074846;28;20416;-63
2022/02/02 07:07:27;;;;;;;2.58;0.50;;;23.60;41.90;;;;;;5070139;28;20075;-65
2022/02/02 07:10:09;;;;;;;4.63;0.50;;;23.60;42.00;;;;;;5077582;28;20036;-63
2022/02/02 07:12:53;;;;;;;3.22;0.60;;;23.60;41.90;;;;;;5072562;28;20059;-65
2022/02/02 07:15:27;;;;;;;2.95;0.45;;;23.60;41.80;;;;;;5077790;28;20057;-63
2022/02/02 07:18:10;;;;;;;1.40;0.40;;;23.60;41.80;;;;;;5079497;28;20066;-65
2022/02/02 07:20:48;;;;;;;2.97;0.55;;;23.60;41.90;;;;;;5082089;28;20032;-66
2022/02/02 07:23:40;;;;;;;2.40;0.90;;;23.60;41.90;;;;;;5078419;28;20040;-65
2022/02/02 07:26:32;;;;;;;3.67;0.77;;;23.60;41.80;;;;;;5080177;28;20039;-63
2022/02/02 07:29:07;;;;;;;1.95;0.50;;;23.60;41.70;;;;;;5079556;28;20059;-64
2022/02/02 07:31:46;;;;;;;2.55;0.60;;;23.60;41.80;;;;;;5080003;28;20032;-58
2022/02/02 07:34:37;;;;;;;5.53;0.50;;;23.60;41.80;;;;;;5073410;28;20047;-59
2022/02/02 07:37:10;;;;;;;2.85;0.98;;;23.60;41.90;;;;;;5078387;28;20040;-60
2022/02/02 07:39:40;;;;;;;7.55;0.60;;;23.60;42.00;;;;;;5079232;28;20039;-60
2022/02/02 07:42:11;;;;;;;23.05;3.60;;;23.60;42.00;;;;;;5072038;28;20139;-59
2022/02/02 07:44:42;;;;;;;22.95;1.45;;;23.60;42.10;;;;;;5067372;28;20052;-60
2022/02/02 07:47:12;;;;;;;8.82;1.00;;;23.50;42.10;;;;;;5076955;28;20408;-59
2022/02/02 07:49:48;;;;;;;10.77;1.48;;;23.40;42.10;;;;;;5072769;28;20072;-59
2022/02/02 07:52:18;;;;;;;12.27;1.85;;;23.30;42.30;;;;;;5078296;28;20044;-58
2022/02/02 07:54:48;;;;;;;7.93;0.88;;;23.20;42.30;;;;;;5080154;28;20165;-57
2022/02/02 07:57:24;;;;;;;6.28;0.63;;;23.10;42.50;;;;;;5076759;28;20040;-58
2022/02/02 07:59:55;;;;;;;7.68;0.85;;;23.00;42.60;;;;;;5072161;28;20045;-58
2022/02/02 08:02:29;;;;;;;8.02;0.50;;;22.90;42.70;;;;;;5075626;28;20110;-58
2022/02/02 08:04:56;;;;;;;3.20;0.50;;;22.80;42.80;;;;;;5073485;28;20036;-59
2022/02/02 08:07:28;;;;;;;5.03;1.85;;;22.70;42.90;;;;;;5076329;28;20060;-59
2022/02/02 08:10:07;;;;;;;5.38;0.63;;;22.60;43.00;;;;;;5071284;28;20045;-60
2022/02/02 08:12:42;;;;;;;11.70;1.73;;;22.50;43.10;;;;;;5076308;28;20389;-60
2022/02/02 08:15:13;;;;;;;2.25;0.25;;;22.50;43.30;;;;;;5069882;28;20076;-58
2022/02/02 08:17:41;;;;;;;1.83;0.25;;;22.30;43.30;;;;;;5072060;28;20037;-59
2022/02/02 08:20:09;;;;;;;3.10;0.60;;;22.30;43.40;;;;;;5071913;28;20476;-60
2022/02/02 08:22:39;;;;;;;2.30;0.45;;;22.20;43.50;;;;;;5075569;28;20044;-60
2022/02/02 08:25:08;;;;;;;3.85;0.50;;;22.20;43.70;;;;;;5076915;28;20044;-59
2022/02/02 08:27:40;;;;;;;5.35;0.40;;;22.10;43.70;;;;;;5071886;28;20032;-58
2022/02/02 08:30:11;;;;;;;3.10;0.57;;;22.00;43.80;;;;;;5071347;28;20036;-60
2022/02/02 08:32:45;;;;;;;4.75;0.38;;;22.00;43.90;;;;;;5069154;28;20734;-59
2022/02/02 08:35:13;;;;;;;0.85;0.40;;;21.90;44.00;;;;;;5075056;28;20497;-58
2022/02/02 08:37:44;;;;;;;2.30;0.38;;;21.90;44.10;;;;;;5072590;28;20075;-58
2022/02/02 08:40:22;;;;;;;2.75;0.43;;;21.80;44.20;;;;;;5074116;28;20129;-58
2022/02/02 08:42:50;;;;;;;1.45;0.20;;;21.80;44.20;;;;;;5076282;28;20048;-57
2022/02/02 08:45:22;;;;;;;1.08;0.73;;;21.70;44.40;;;;;;5071370;28;20036;-59
2022/02/02 08:47:55;;;;;;;1.42;0.30;;;21.70;44.50;;;;;;5068219;28;20051;-59
2022/02/02 08:50:30;;;;;;;3.28;0.20;;;21.70;44.60;;;;;;5070964;28;20114;-56
2022/02/02 08:53:04;;;;;;;2.17;0.30;;;21.60;44.60;;;;;;5074996;28;20509;-58
2022/02/02 08:56:01;;;;;;;4.00;0.63;;;21.50;44.60;;;;;;5071764;28;20072;-57
2022/02/02 08:58:33;;;;;;;2.50;0.73;;;21.50;44.70;;;;;;5073436;28;20052;-57
2022/02/02 09:01:06;;;;;;;2.17;0.45;;;21.40;44.70;;;;;;5070975;28;20041;-57
2022/02/02 09:06:18;;;;;;;0.43;0.20;;;21.40;44.90;;;;;;5068705;28;20520;-58
2022/02/02 09:08:48;;;;;;;2.20;0.30;;;21.40;45.00;;;;;;5070445;28;20044;-58
2022/02/02 09:25:13;;;;;;;1.55;0.40;;;21.20;45.30;;;;;;4938059;29;20039;-57
2022/02/02 09:35:57;;;;;;;1.75;0.40;;;21.10;45.50;;;;;;4931683;29;20044;-58
2022/02/02 09:38:25;;;;;;;2.42;0.30;;;21.10;45.50;;;;;;4927178;29;20174;-58
2022/02/02 09:43:49;;;;;;;1.95;0.52;;;21.10;45.50;;;;;;4864185;29;20050;-59
2022/02/02 09:46:20;;;;;;;1.73;0.52;;;21.00;45.60;;;;;;4866459;29;20049;-59
2022/02/02 09:48:53;;;;;;;2.67;0.35;;;21.00;45.50;;;;;;4868047;29;20059;-58
2022/02/02 09:51:26;;;;;;;1.20;0.82;;;21.00;45.60;;;;;;4859352;29;20523;-58
2022/02/02 09:53:59;;;;;;;1.23;0.22;;;21.00;45.50;;;;;;4943025;28;20039;-58
2022/02/02 09:56:46;;;;;;;1.70;0.43;;;21.00;45.60;;;;;;4937389;29;20091;-59
2022/02/02 09:59:28;;;;;;;0.77;0.50;;;21.00;45.60;;;;;;4933237;29;20043;-58
2022/02/02 10:05:06;;;;;;;1.35;0.32;;;21.00;45.80;;;;;;5012321;28;20049;-58
2022/02/02 10:07:53;;;;;;;1.90;0.30;;;20.90;45.80;;;;;;5008297;28;20163;-57
2022/02/02 10:10:50;;;;;;;2.00;0.35;;;20.90;45.80;;;;;;5008179;28;20053;-57
2022/02/02 10:16:02;;;;;;;1.17;0.30;;;20.90;45.80;;;;;;5001619;28;20048;-56
2022/02/02 10:18:32;;;;;;;0.65;0.43;;;20.90;45.90;;;;;;5010770;28;20144;-58
2022/02/02 10:21:02;;;;;;;1.23;0.10;;;20.90;45.90;;;;;;5068987;28;20036;-58
2022/02/02 10:23:30;;;;;;;0.40;0.30;;;20.90;45.90;;;;;;5070155;28;20040;-58
2022/02/02 10:26:13;;;;;;;1.65;0.30;;;20.90;45.90;;;;;;5077140;28;20044;-58
2022/02/02 10:28:40;;;;;;;1.10;0.50;;;20.90;45.90;;;;;;5072852;28;20044;-58
2022/02/02 10:31:08;;;;;;;0.63;0.20;;;20.90;45.90;;;;;;5073292;28;20036;-57
2022/02/02 10:33:39;;;;;;;0.93;0.20;;;20.80;45.90;;;;;;5073032;28;20093;-57
2022/02/02 10:36:15;;;;;;;0.40;0.20;;;20.90;45.90;;;;;;5070619;28;20040;-58
2022/02/02 10:38:48;;;;;;;0.98;0.10;;;20.90;46.00;;;;;;5072774;28;20113;-58
2022/02/02 10:41:27;;;;;;;1.77;0.50;;;20.90;46.10;;;;;;5071589;28;20056;-58
2022/02/02 10:43:57;;;;;;;0.73;0.20;;;20.80;46.00;;;;;;5073237;28;20047;-57
2022/02/02 10:46:31;;;;;;;1.85;0.20;;;20.80;46.00;;;;;;5074154;28;20874;-58
2022/02/02 10:49:11;;;;;;;1.50;0.60;;;20.90;46.00;;;;;;5077631;28;20040;-58
2022/02/02 10:51:44;;;;;;;1.13;0.30;;;20.90;46.00;;;;;;5075721;28;20040;-57
2022/02/02 10:54:20;;;;;;;0.22;0.13;;;20.90;46.00;;;;;;5073883;28;20064;-58
2022/02/02 10:56:54;;;;;;;0.38;0.20;;;20.90;46.00;;;;;;5073908;28;20051;-57
2022/02/02 10:59:30;;;;;;;0.73;0.25;;;20.80;46.00;;;;;;5076086;28;20124;-58
2022/02/02 11:07:28;;;;;;;0.73;0.10;;;20.80;46.00;;;;;;5076855;28;20037;-58
2022/02/02 11:09:55;;;;;;;0.30;0.20;;;20.80;46.00;;;;;;5073135;28;20067;-55
2022/02/02 11:12:30;;;;;;;1.67;0.20;;;20.90;46.00;;;;;;5074725;28;20097;-57
2022/02/02 11:15:05;;;;;;;0.40;0.10;;;20.80;46.00;;;;;;5071780;28;20070;-59
2022/02/02 11:17:46;;;;;;;0.50;0.43;;;20.80;45.90;;;;;;5074112;28;20051;-58
2022/02/02 11:20:15;;;;;;;0.28;0.10;;;20.90;46.00;;;;;;5068953;28;20048;-57
2022/02/02 11:22:51;;;;;;;0.68;0.20;;;20.80;46.00;;;;;;5080039;28;20564;-60
2022/02/02 11:25:33;;;;;;;1.02;0.45;;;20.90;46.00;;;;;;5079826;28;20113;-57
2022/02/02 11:28:03;;;;;;;2.45;0.22;;;20.90;46.00;;;;;;5072980;28;20062;-56
2022/02/02 11:30:41;;;;;;;0.15;0.10;;;20.80;46.00;;;;;;5075304;28;20055;-57
2022/02/02 11:33:23;;;;;;;0.30;0.10;;;20.90;46.10;;;;;;5072783;28;20039;-57
2022/02/02 11:35:52;;;;;;;0.77;0.20;;;20.90;46.00;;;;;;5069959;28;20036;-55
2022/02/02 11:38:42;;;;;;;0.60;0.20;;;20.90;46.00;;;;;;5070506;28;20110;-57
2022/02/02 11:41:36;;;;;;;0.30;0.20;;;20.90;46.00;;;;;;5073202;28;20045;-58
2022/02/02 11:44:10;;;;;;;0.50;0.22;;;20.80;46.00;;;;;;5084481;28;20105;-59
2022/02/02 11:46:48;;;;;;;0.47;0.10;;;20.90;46.00;;;;;;5072560;28;20044;-57
2022/02/02 11:49:18;;;;;;;0.35;0.10;;;20.90;46.00;;;;;;5077134;28;20048;-59
2022/02/02 11:51:47;;;;;;;1.08;0.10;;;20.80;46.00;;;;;;5074337;28;20416;-59
2022/02/02 11:54:17;;;;;;;1.33;0.57;;;20.90;46.00;;;;;;5073700;28;20051;-57
2022/02/02 11:57:20;;;;;;;0.22;0.10;;;20.90;46.00;;;;;;5068967;28;20161;-60
2022/02/02 11:59:57;;;;;;;0.10;0.10;;;20.90;46.00;;;;;;5073608;28;20041;-57
2022/02/02 12:02:44;;;;;;;1.00;0.10;;;20.90;46.00;;;;;;5074044;28;20055;-59
2022/02/02 12:05:22;;;;;;;3.00;0.17;;;20.90;46.00;;;;;;5071855;28;20049;-59
2022/02/02 12:08:04;;;;;;;3.20;0.15;;;20.90;46.00;;;;;;5078257;28;20043;-57
2022/02/02 12:47:19;;;;;;;0.77;0.10;;;20.80;45.90;;;;;;5071342;28;20120;-57
2022/02/02 12:50:02;;;;;;;0.15;0.10;;;20.80;45.90;;;;;;5078536;28;20046;-58
2022/02/02 12:58:16;;;;;;;0.95;0.20;;;20.80;45.80;;;;;;5076149;28;20283;-59
2022/02/02 13:01:07;;;;;;;0.68;0.20;;;20.80;45.90;;;;;;5070434;28;20048;-59
2022/02/02 13:03:36;;;;;;;1.55;0.10;;;20.90;45.90;;;;;;5081979;28;20119;-58
2022/02/02 13:06:03;;;;;;;1.65;0.10;;;20.80;45.80;;;;;;5066027;28;20037;-58
2022/02/02 13:08:31;;;;;;;0.63;0.08;;;20.80;45.80;;;;;;5072016;28;20289;-58
2022/02/02 13:10:58;;;;;;;0.10;0.10;;;20.80;45.80;;;;;;5072253;28;20037;-59
2022/02/02 13:13:28;;;;;;;0.05;0.05;;;20.90;45.80;;;;;;5075055;28;20067;-58
2022/02/02 13:16:11;;;;;;;0.28;0.10;;;20.90;45.80;;;;;;5076613;28;20043;-59
2022/02/02 13:18:43;;;;;;;0.20;0.15;;;20.80;45.70;;;;;;5070721;28;20036;-58
2022/02/02 13:21:14;;;;;;;0.10;0.10;;;20.90;45.80;;;;;;5070402;28;20040;-58
2022/02/02 13:23:55;;;;;;;0.20;0.10;;;20.80;45.70;;;;;;5071331;28;20168;-58
2022/02/02 13:26:29;;;;;;;0.13;0.10;;;20.90;45.80;;;;;;5084233;28;20049;-59
2022/02/02 13:29:03;;;;;;;0.10;0.10;;;20.90;45.80;;;;;;5069686;28;20078;-58
2022/02/02 13:31:44;;;;;;;0.10;0.10;;;20.90;45.70;;;;;;5072982;28;20121;-59
2022/02/02 13:34:23;;;;;;;0.57;0.10;;;20.90;45.80;;;;;;5069943;28;20480;-59
2022/02/02 13:37:00;;;;;;;0.10;0.10;;;20.90;45.70;;;;;;5073038;28;20036;-58
2022/02/02 13:43:34;;;;;;;0.10;0.10;;;20.90;45.60;;;;;;5070216;28;20063;-58
2022/02/02 13:49:11;;;;;;;;;;;21.00;45.90;;;;;;5074437;28;20063;-59
2022/02/02 13:51:53;;;;;;;0.10;0.10;;;21.00;45.80;;;;;;5072525;28;19924;-59
2022/02/02 13:54:37;;;;;;;0.50;0.10;;;21.00;45.80;;;;;;5072142;28;20765;-59
2022/02/02 13:57:43;;;;;;;0.10;0.10;;;21.00;45.70;;;;;;5069114;28;20032;-59
2022/02/02 14:00:31;;;;;;;0.43;0.08;;;21.00;45.60;;;;;;5070000;28;20040;-59
2022/02/02 14:06:19;;;;;;;1.25;0.10;;;21.00;45.50;;;;;;5079189;28;20127;-59
2022/02/02 14:31:09;;;;;;;0.10;0.10;;;21.00;45.20;;;;;;5019607;28;20081;-59
2022/02/02 14:33:37;;;;;;;0.15;0.10;;;21.00;45.20;;;;;;5020223;28;20045;-59
2022/02/02 14:36:07;;;;;;;0.10;0.10;;;21.00;45.20;;;;;;5019045;28;20133;-58
2022/02/02 14:38:42;;;;;;;0.30;0.00;;;21.00;45.20;;;;;;5021461;28;20128;-58
2022/02/02 14:41:18;;;;;;;0.30;0.08;;;21.10;45.20;;;;;;5019968;28;20061;-58
2022/02/02 14:43:52;;;;;;;1.00;0.03;;;21.10;45.20;;;;;;5022674;28;20107;-58
2022/02/02 14:46:25;;;;;;;0.00;0.00;;;21.10;45.20;;;;;;5018813;28;20133;-58
2022/02/02 14:48:56;;;;;;;0.10;0.00;;;21.10;45.20;;;;;;5020770;28;20470;-56
2022/02/02 14:51:34;;;;;;;0.45;0.08;;;21.00;45.10;;;;;;5014102;28;20052;-59
2022/02/02 14:54:11;;;;;;;0.10;0.10;;;21.10;45.10;;;;;;5019657;28;21105;-58
2022/02/02 15:27:33;;;;;;;;;;;20.90;45.10;;;;;;4831078;29;20118;-58
2022/02/02 15:30:11;;;;;;;0.43;0.05;;;20.90;45.10;;;;;;4825248;29;19938;-59
2022/02/02 15:32:44;;;;;;;1.65;0.10;;;20.90;45.20;;;;;;4834601;29;20068;-59
2022/02/02 15:35:11;;;;;;;0.00;0.00;;;20.80;45.10;;;;;;4819463;29;20502;-58
2022/02/02 15:37:48;;;;;;;0.00;0.00;;;20.80;45.10;;;;;;4835486;29;20046;-58
2022/02/02 15:40:17;;;;;;;0.13;0.00;;;20.90;45.20;;;;;;4852134;29;20052;-58
2022/02/02 15:42:55;;;;;;;0.00;0.00;;;20.90;45.20;;;;;;4920246;29;20062;-59
2022/02/02 15:59:09;;;;;;;0.00;0.00;;;20.80;45.10;;;;;;5024526;28;20056;-58
2022/02/02 16:02:06;;;;;;;0.03;0.03;;;20.80;45.10;;;;;;5036080;28;20056;-58
2022/02/02 16:04:36;;;;;;;0.10;0.00;;;20.80;45.20;;;;;;5057038;28;20052;-57
2022/02/02 16:07:06;;;;;;;2.17;0.30;;;20.80;45.20;;;;;;5058334;28;20481;-58
2022/02/02 16:09:43;;;;;;;2.08;0.10;;;20.80;45.20;;;;;;5073730;28;20151;-59
2022/02/02 16:12:16;;;;;;;0.00;0.00;;;20.80;45.20;;;;;;5072475;28;20059;-58
2022/02/02 16:14:50;;;;;;;0.10;0.10;;;20.80;45.20;;;;;;5067927;28;20036;-58
2022/02/02 16:17:38;;;;;;;0.00;0.00;;;20.80;45.10;;;;;;5070534;28;20051;-59
2022/02/02 16:36:37;;;;;;;0.00;0.00;;;20.70;45.20;;;;;;5066351;28;20055;-59
2022/02/02 16:39:09;;;;;;;0.00;0.00;;;20.70;45.20;;;;;;5082261;28;20036;-58
2022/02/02 16:44:22;;;;;;;0.10;0.00;;;20.70;45.20;;;;;;5067166;28;20078;-59
2022/02/02 16:46:52;;;;;;;0.35;0.00;;;20.70;45.20;;;;;;5072653;28;20086;-58
2022/02/02 16:49:19;;;;;;;0.10;0.08;;;20.70;45.20;;;;;;5077158;28;20096;-59
2022/02/02 16:51:46;;;;;;;0.00;0.00;;;20.70;45.20;;;;;;5072589;28;20036;-58
2022/02/02 16:54:20;;;;;;;0.00;0.00;;;20.70;45.20;;;;;;5072401;28;20044;-57
2022/02/02 16:57:04;;;;;;;1.27;0.00;;;20.70;45.20;;;;;;5070722;28;20131;-58
2022/02/02 17:25:01;;;;;;;0.00;0.00;;;20.60;45.10;;;;;;5071403;28;20708;-57
2022/02/02 17:30:15;;;;;;;0.00;0.00;;;20.50;45.10;;;;;;5069144;28;20062;-57
2022/02/02 17:32:52;;;;;;;0.10;0.10;;;20.50;45.10;;;;;;5066554;28;20044;-57
2022/02/02 17:35:31;;;;;;;1.30;0.90;;;20.50;45.10;;;;;;5068119;28;20040;-58
2022/02/02 17:38:07;;;;;;;0.00;0.00;;;20.50;45.10;;;;;;5071429;28;20070;-57
2022/02/02 17:40:46;;;;;;;0.28;0.00;;;20.50;45.10;;;;;;5076480;28;20475;-58
2022/02/02 17:58:01;;;;;;;0.30;0.10;;;20.50;45.00;;;;;;5021681;28;20041;-55
2022/02/02 18:00:50;;;;;;;0.00;0.00;;;20.50;45.10;;;;;;5016331;28;20033;-58
2022/02/02 18:19:54;;;;;;;0.50;0.10;;;20.50;45.10;;;;;;4980883;28;20164;-53
2022/02/02 18:22:26;;;;;;;0.15;0.10;;;20.40;45.60;;;;;;5029811;28;20161;-51
2022/02/02 18:25:03;;;;;;;1.05;0.10;;;20.50;46.00;;;;;;5048528;28;20076;-53
2022/02/02 18:27:39;;;;;;;5.85;0.10;;;20.50;46.50;;;;;;5049228;28;20044;-52
2022/02/02 18:30:19;;;;;;;;;;;20.50;46.80;;;;;;5052702;28;20141;-52
2022/02/02 18:32:59;;;;;;;2.83;0.77;;;20.40;46.70;;;;;;5037336;28;20839;-51
2022/02/02 18:35:32;;;;;;;7.72;0.10;;;20.40;47.40;;;;;;5043292;28;20045;-49
2022/02/02 18:49:06;;;;;;;5.57;0.20;;;20.50;47.50;;;;;;5036633;28;20041;-54
2022/02/02 18:54:31;;;;;;;2.38;0.63;;;20.50;47.30;;;;;;5068917;28;20056;-53
2022/02/02 18:57:11;;;;;;;2.05;0.10;;;20.50;47.30;;;;;;5067904;28;20102;-52
2022/02/02 19:00:03;;;;;;;4.00;0.10;;;20.50;47.30;;;;;;5064959;28;20048;-52
2022/02/02 19:14:51;;;;;;;1.08;0.10;;;20.50;47.00;;;;;;5109288;27;20449;-51
2022/02/02 19:53:10;;;;;;;0.32;0.10;;;20.40;46.30;;;;;;4982726;28;20749;-50
2022/02/02 19:55:43;;;;;;;0.28;0.10;;;20.40;46.30;;;;;;4988034;28;20051;-52
2022/02/02 20:04:00;;;;;;;;;;;20.40;46.20;;;;;;4987014;28;20100;-52
2022/02/02 20:06:42;;;;;;;0.20;0.10;;;20.30;46.20;;;;;;4974190;28;19926;-53
2022/02/02 20:12:03;;;;;;;0.40;0.10;;;20.30;46.20;;;;;;4959183;28;20135;-50
2022/02/02 20:14:32;;;;;;;0.10;0.10;;;20.30;46.20;;;;;;4959348;28;20054;-49
2022/02/02 20:16:59;;;;;;;0.40;0.10;;;20.40;46.20;;;;;;4960863;28;20062;-52
2022/02/02 20:19:28;;;;;;;0.38;0.10;;;20.40;46.10;;;;;;4985424;28;20058;-47
2022/02/02 20:21:57;;;;;;;1.73;0.10;;;20.40;46.10;;;;;;5001808;28;20522;-71
2022/02/02 20:24:33;;;;;;;1.00;0.10;;;20.40;46.10;;;;;;4994155;28;20143;-58
2022/02/02 20:27:01;;;;;;;0.30;0.30;;;20.40;46.60;;;;;;4984036;28;20053;-56
2022/02/02 20:29:31;;;;;;;0.45;0.10;;;20.50;46.90;;;;;;4982190;28;20064;-70
2022/02/02 20:31:59;;;;;;;7.13;0.10;;;20.50;46.80;;;;;;4999887;28;20057;-64
2022/02/02 20:34:26;;;;;;;0.95;0.20;;;20.70;46.70;;;;;;4999878;28;20072;-60
2022/02/02 20:36:53;;;;;;;0.25;0.17;;;20.80;46.60;;;;;;4999695;28;20054;-63
2022/02/02 20:39:35;;;;;;;0.20;0.10;;;21.00;46.40;;;;;;4983454;28;20041;-48
2022/02/02 20:42:05;;;;;;;0.80;0.10;;;21.10;46.00;;;;;;4992420;28;20625;-48
2022/02/02 21:04:29;;;;;;;1.48;0.73;;;22.10;44.00;;;;;;5040122;28;20127;-53
2022/02/02 21:07:20;;;;;;;0.10;0.10;;;22.20;43.90;;;;;;5040573;28;20057;-54
2022/02/02 21:09:55;;;;;;;0.40;0.17;;;22.30;43.70;;;;;;5039694;28;20048;-51
2022/02/02 21:15:13;;;;;;;0.10;0.10;;;22.60;43.50;;;;;;5037336;28;20102;-54
2022/02/02 21:17:42;;;;;;;1.10;0.17;;;22.60;43.20;;;;;;5036124;28;20052;-60
2022/02/02 21:20:19;;;;;;;0.75;0.10;;;22.70;43.00;;;;;;5040642;28;20119;-66
2022/02/02 21:22:50;;;;;;;2.40;0.20;;;22.80;42.80;;;;;;5078264;28;20051;-67
2022/02/02 21:25:35;;;;;;;1.00;0.10;;;22.90;42.50;;;;;;5077433;28;20192;-65